Airfield :
LOGIN :

Register | Disclaimer

   EN    FR    IT 

 










Legend :    VFR   Marginal VFR   IFR   Intensive IFR   Very Intensive IFR
Visi :
Ceiling :
>= 8 km
>= 3000ft
5 to 8 km
1000 to 3000 ft
1500m to 5 km
500 to 1000 ft
800 to 1500m
200 to 500 ft
< 800m
< 200 ft
Symbols :   Thunderstorms  Fog  Heavy snow  Heavy precipitations  Wind > 20 kt
SIGMETs :     Misc.  Thunderstorms  Icing  Turbulence  Mountain Waves  Volcanic Ashes






- Airport Elevation : 291 ft
- IATA code : ORY


LFPO - Paris-Orly

CURRENT METAR :
  • 042100Z 35008KT 310V020 8000 BKN013 07/05 Q1022 NOSIG

EXPIRED METARs :
  • 042030Z 03012KT 8000 BKN009 07/05 Q1022 NOSIG
  • 042000Z 02010KT 9999 BKN013 BKN021 08/05 Q1022 NOSIG
  • 041930Z 01009KT 9999 BKN015 08/06 Q1021 NOSIG
  • 041900Z 02010KT 9999 BKN015 08/06 Q1021 NOSIG
  • 041830Z 36010KT 9999 BKN015 09/07 Q1021 NOSIG

TAF TAF LFPO
Valid from the 04 at 18:00 until the 06 at 00:00 UTC


041700Z 0418/0524 01008KT 9999 BKN016
BECMG 0418/0420 BKN012
PROB40
TEMPO 0505/0508 BKN020
BECMG 0508/0510 BKN020
BECMG 0513/0515 CAVOK
ATIS : +33 1 49 75 65 80



MET'MAP, your aeronautical weather chart ! - Copyright ORBIFLY December 2007 - Disclaimer

ORBIFLY MET'MAP TEAM :

Programming & Development : Alexandra Zaïnal
Concept & original design : Baudouin d'Aumeries
Assistance for programming : Marc-Olivier Méhu
Technical & hardware support : Manuel Goepfert

Contact : metmap@orbifly.com




SOURCES & CREDITS :

   NOAA